createdAt,value
2023-02-12T00:01:36.185Z,103098.03
2023-02-12T00:04:05.970Z,103042.19
2023-02-12T00:06:35.844Z,102903.63
2023-02-12T00:09:05.798Z,103045.84
2023-02-12T00:11:35.616Z,103076.78
2023-02-12T00:14:06.042Z,103013.50
2023-02-12T00:16:38.890Z,103050.94
2023-02-12T00:19:08.795Z,103044.75
2023-02-12T00:21:38.975Z,103017.22
2023-02-12T00:24:09.387Z,102938.75
2023-02-12T00:26:39.358Z,103048.94
2023-02-12T00:29:09.632Z,103058.06
2023-02-12T00:31:42.609Z,103020.44
2023-02-12T00:34:14.097Z,103026.63
2023-02-12T00:36:44.066Z,103055.69
2023-02-12T00:39:13.984Z,103106.59
2023-02-12T00:41:43.741Z,103044.44
2023-02-12T00:44:13.494Z,103061.09
2023-02-12T00:46:45.903Z,103078.13
2023-02-12T00:49:16.082Z,103112.44
2023-02-12T00:51:45.836Z,103086.94
2023-02-12T00:54:15.725Z,103108.81
2023-02-12T00:56:45.452Z,103111.56
2023-02-12T00:59:15.089Z,103106.59
2023-02-12T01:01:47.451Z,103081.00
2023-02-12T01:04:18.489Z,103065.03
2023-02-12T01:06:48.337Z,103098.03
2023-02-12T01:09:18.352Z,103113.53
2023-02-12T01:11:48.042Z,103133.00
2023-02-12T01:14:19.041Z,103092.75
2023-02-12T01:16:51.394Z,103132.06
2023-02-12T01:19:22.079Z,103133.13
2023-02-12T01:21:53.021Z,103074.88
2023-02-12T01:24:22.720Z,103132.94
2023-02-12T01:26:52.409Z,103140.16
2023-02-12T01:29:22.119Z,103098.50
2023-02-12T01:31:54.625Z,103154.97
2023-02-12T01:34:24.600Z,103142.72
2023-02-12T01:36:55.341Z,103124.31
2023-02-12T01:39:25.085Z,103068.38
2023-02-12T01:41:54.762Z,103092.13
2023-02-12T01:44:26.443Z,103124.97
2023-02-12T01:47:02.205Z,103116.03
2023-02-12T01:49:36.472Z,103137.81
2023-02-12T01:52:11.596Z,103098.88
2023-02-12T01:54:42.073Z,103085.25
2023-02-12T01:57:14.970Z,103125.44
2023-02-12T01:59:46.509Z,103143.06
2023-02-12T02:02:19.368Z,103088.56
2023-02-12T02:04:54.710Z,103106.19
2023-02-12T02:07:24.382Z,103138.16
2023-02-12T02:09:54.809Z,103148.66
2023-02-12T02:12:37.257Z,103142.78
2023-02-12T02:15:09.030Z,103136.41
2023-02-12T02:17:53.019Z,103144.16
2023-02-12T02:21:07.456Z,103144.44
2023-02-12T02:23:59.427Z,103124.63
2023-02-12T02:27:02.833Z,103137.41
2023-02-12T02:29:49.031Z,103095.41
2023-02-12T02:32:26.506Z,103091.88
2023-02-12T02:35:04.607Z,103109.16
2023-02-12T02:37:37.990Z,103135.63
2023-02-12T02:40:14.639Z,103093.38
2023-02-12T02:42:49.546Z,103125.75
2023-02-12T02:45:23.729Z,103105.44
2023-02-12T02:48:01.094Z,103072.22
2023-02-12T02:50:34.328Z,103117.09
2023-02-12T02:53:07.381Z,103067.78
2023-02-12T02:55:43.676Z,103091.34
2023-02-12T02:58:17.433Z,103044.78
2023-02-12T03:00:51.088Z,103112.72
2023-02-12T03:03:28.786Z,103128.69
2023-02-12T03:06:05.586Z,103117.81
2023-02-12T03:08:41.093Z,103084.47
2023-02-12T03:11:15.623Z,103039.19
2023-02-12T03:13:50.931Z,103072.81
2023-02-12T03:16:26.074Z,103136.16
2023-02-12T03:19:04.007Z,103047.25
2023-02-12T03:21:42.857Z,103139.75
2023-02-12T03:24:18.111Z,103101.94
2023-02-12T03:26:53.568Z,103139.66
2023-02-12T03:29:23.247Z,103124.78
2023-02-12T03:32:05.894Z,103031.34
2023-02-12T03:34:50.169Z,103062.22
2023-02-12T03:37:25.173Z,103119.00
2023-02-12T03:39:59.456Z,103141.63
2023-02-12T03:42:37.267Z,103136.63
2023-02-12T03:45:13.169Z,103123.31
2023-02-12T03:47:48.957Z,103145.84
2023-02-12T03:50:27.751Z,103122.31
2023-02-12T03:52:57.480Z,103100.06
2023-02-12T03:55:27.521Z,103136.81
2023-02-12T03:58:02.548Z,103148.88
2023-02-12T04:00:33.011Z,103083.06
2023-02-12T04:03:03.420Z,103091.69
2023-02-12T04:05:35.847Z,103087.94
2023-02-12T04:08:11.819Z,103169.81
2023-02-12T04:10:49.917Z,103148.84
2023-02-12T04:13:26.612Z,103154.63
2023-02-12T04:16:15.485Z,103152.16
2023-02-12T04:18:49.529Z,103181.75
2023-02-12T04:21:38.849Z,103163.63
2023-02-12T04:24:16.451Z,103185.31
2023-02-12T04:26:52.886Z,103182.94
2023-02-12T04:29:32.366Z,103142.56
2023-02-12T04:32:09.668Z,103164.53
2023-02-12T04:34:48.112Z,103185.78
2023-02-12T04:37:25.179Z,103147.53
2023-02-12T04:39:56.291Z,103170.38
2023-02-12T04:42:26.087Z,103154.19
2023-02-12T04:44:56.025Z,103163.09
2023-02-12T04:47:25.651Z,103185.56
2023-02-12T04:49:55.376Z,103175.66
2023-02-12T04:52:27.644Z,103160.84
2023-02-12T04:54:57.376Z,103167.91
2023-02-12T04:57:27.056Z,103145.84
2023-02-12T04:59:56.797Z,102983.94
2023-02-12T05:02:26.596Z,103193.31
2023-02-12T05:04:56.453Z,103141.09
2023-02-12T05:07:29.301Z,103167.59
2023-02-12T05:09:59.066Z,103095.03
2023-02-12T05:12:28.775Z,103145.28
2023-02-12T05:14:58.399Z,103148.38
2023-02-12T05:17:28.251Z,103157.56
2023-02-12T05:19:57.892Z,103190.25
2023-02-12T05:22:30.295Z,103169.59
2023-02-12T05:24:59.954Z,103175.13
2023-02-12T05:27:29.668Z,103090.47
2023-02-12T05:29:59.550Z,103019.09
2023-02-12T05:32:29.265Z,103164.28
2023-02-12T05:34:58.990Z,103118.44
2023-02-12T05:37:31.617Z,103133.19
2023-02-12T05:40:01.283Z,103192.09
2023-02-12T05:42:32.446Z,103161.94
2023-02-12T05:45:02.153Z,103198.03
2023-02-12T05:47:31.917Z,103132.91
2023-02-12T05:50:01.569Z,103154.66
2023-02-12T05:52:33.910Z,103178.81
2023-02-12T05:55:03.557Z,103185.69
2023-02-12T05:57:33.245Z,103164.47
2023-02-12T06:00:02.941Z,103082.28
2023-02-12T06:02:41.899Z,103138.78
2023-02-12T06:05:11.597Z,103189.34
2023-02-12T06:07:43.888Z,103159.22
2023-02-12T06:10:14.329Z,103169.16
2023-02-12T06:12:44.096Z,103154.72
2023-02-12T06:15:13.796Z,103175.38
2023-02-12T06:17:43.460Z,103195.00
2023-02-12T06:20:13.617Z,103199.22
2023-02-12T06:22:45.867Z,103178.13
2023-02-12T06:25:15.507Z,103200.00
2023-02-12T06:27:45.187Z,103169.09
2023-02-12T06:30:16.398Z,103132.31
2023-02-12T06:32:46.032Z,103202.38
2023-02-12T06:35:15.734Z,103148.97
2023-02-12T06:37:48.067Z,103170.91
2023-02-12T06:40:18.143Z,103208.69
2023-02-12T06:42:49.581Z,103217.00
2023-02-12T06:45:20.243Z,103208.69
2023-02-12T06:47:50.070Z,103132.63
2023-02-12T06:50:20.032Z,103151.63
2023-02-12T06:52:52.333Z,103130.66
2023-02-12T06:55:22.176Z,103245.16
2023-02-12T06:57:51.936Z,103159.56
2023-02-12T07:00:23.086Z,103221.97
2023-02-12T07:02:56.787Z,103223.28
2023-02-12T07:05:27.419Z,103246.03
2023-02-12T07:07:59.621Z,103230.34
2023-02-12T07:10:29.331Z,103191.31
2023-02-12T07:12:59.108Z,103062.38
2023-02-12T07:15:28.970Z,103212.63
2023-02-12T07:17:58.701Z,103223.63
2023-02-12T07:20:28.411Z,103205.88
2023-02-12T07:23:00.803Z,103262.81
2023-02-12T07:25:30.676Z,103222.44
2023-02-12T07:28:00.489Z,103231.25
2023-02-12T07:30:30.379Z,103250.72
2023-02-12T07:33:00.197Z,103227.84
2023-02-12T07:35:29.993Z,103207.97
2023-02-12T07:38:02.319Z,103234.09
2023-02-12T07:40:32.000Z,103178.69
2023-02-12T07:43:01.648Z,103259.53
2023-02-12T07:45:31.364Z,103241.00
2023-02-12T07:48:01.059Z,103278.78
2023-02-12T07:50:30.842Z,103223.00
2023-02-12T07:53:03.187Z,103227.53
2023-02-12T07:55:32.865Z,103256.03
2023-02-12T07:58:02.476Z,103279.69
2023-02-12T08:00:32.185Z,103268.06
2023-02-12T08:03:01.911Z,103270.72
2023-02-12T08:05:31.591Z,103245.09
2023-02-12T08:08:03.894Z,103247.25
2023-02-12T08:10:33.546Z,103282.59
2023-02-12T08:13:03.245Z,103292.78
2023-02-12T08:15:32.923Z,103283.44
2023-02-12T08:18:02.839Z,103299.44
2023-02-12T08:20:32.632Z,103293.22
2023-02-12T08:23:04.959Z,103267.84
2023-02-12T08:25:34.720Z,103250.50
2023-02-12T08:28:04.590Z,103296.03
2023-02-12T08:30:34.332Z,103306.66
2023-02-12T08:33:04.009Z,103254.59
2023-02-12T08:35:33.768Z,103248.63
2023-02-12T08:38:06.078Z,103274.59
2023-02-12T08:40:36.460Z,103266.78
2023-02-12T08:43:06.169Z,103263.69
2023-02-12T08:45:36.137Z,103298.72
2023-02-12T08:48:06.038Z,103316.28
2023-02-12T08:50:37.307Z,103313.41
2023-02-12T08:53:10.203Z,103262.22
2023-02-12T08:55:39.991Z,103319.13
2023-02-12T08:58:09.780Z,103162.25
2023-02-12T09:00:40.521Z,103255.13
2023-02-12T09:03:10.525Z,103308.28
2023-02-12T09:05:41.930Z,103322.84
2023-02-12T09:08:14.358Z,103275.09
2023-02-12T09:10:44.935Z,103289.25
2023-02-12T09:13:16.228Z,103279.53
2023-02-12T09:15:47.985Z,103315.22
2023-02-12T09:18:18.136Z,103288.84
2023-02-12T09:20:47.985Z,103338.13
2023-02-12T09:23:20.418Z,103327.00
2023-02-12T09:25:50.173Z,103343.84
2023-02-12T09:28:20.040Z,103296.31
2023-02-12T09:30:49.923Z,103347.41
2023-02-12T09:33:20.053Z,103337.34
2023-02-12T09:35:49.711Z,103344.72
2023-02-12T09:38:22.016Z,103297.09
2023-02-12T09:41:09.606Z,103322.97
2023-02-12T09:43:46.913Z,103352.47
2023-02-12T09:46:24.018Z,103298.31
2023-02-12T09:49:03.454Z,103217.75
2023-02-12T09:51:34.307Z,103329.06
2023-02-12T09:54:10.224Z,103308.31
2023-02-12T09:56:43.164Z,103271.53
2023-02-12T09:59:21.092Z,103205.91
2023-02-12T10:01:50.927Z,103345.97
2023-02-12T10:04:20.926Z,103313.56
2023-02-12T10:07:00.285Z,103350.56
2023-02-12T10:09:47.291Z,103340.19
2023-02-12T10:12:27.097Z,103334.47
2023-02-12T10:15:12.825Z,103318.47
2023-02-12T10:17:46.517Z,103356.56
2023-02-12T10:20:41.809Z,103312.94
2023-02-12T10:23:26.440Z,103322.78
2023-02-12T10:26:00.905Z,103280.91
2023-02-12T10:28:35.789Z,103352.63
2023-02-12T10:31:09.985Z,103356.34
2023-02-12T10:33:44.009Z,103354.38
2023-02-12T10:36:21.617Z,103333.03
2023-02-12T10:38:55.951Z,103303.09
2023-02-12T10:41:31.065Z,103369.53
2023-02-12T10:44:00.802Z,103292.50
2023-02-12T10:46:33.216Z,103357.75
2023-02-12T10:49:03.456Z,103341.38
2023-02-12T10:51:59.159Z,103337.81
2023-02-12T10:54:37.697Z,103350.63
2023-02-12T10:57:15.992Z,103367.41
2023-02-12T10:59:46.742Z,103319.31
2023-02-12T11:02:25.454Z,103354.47
2023-02-12T11:04:56.543Z,103329.34
2023-02-12T11:07:27.550Z,103316.31
2023-02-12T11:09:59.325Z,103353.22
2023-02-12T11:12:39.732Z,103343.81
2023-02-12T11:15:17.913Z,103352.53
2023-02-12T11:17:59.498Z,103332.59
2023-02-12T11:20:31.601Z,103354.72
2023-02-12T11:23:03.280Z,103353.94
2023-02-12T11:25:34.651Z,103351.09
2023-02-12T11:28:18.310Z,103336.16
2023-02-12T11:30:57.802Z,103327.63
2023-02-12T11:33:33.604Z,103325.66
2023-02-12T11:36:08.339Z,103327.38
2023-02-12T11:38:41.921Z,103316.53
2023-02-12T11:41:28.550Z,103311.44
2023-02-12T11:44:01.291Z,103330.06
2023-02-12T11:46:31.694Z,103337.63
2023-02-12T11:49:02.022Z,103315.53
2023-02-12T11:51:34.158Z,103299.16
2023-02-12T11:54:06.469Z,103323.28
2023-02-12T11:56:47.881Z,103330.34
2023-02-12T11:59:32.990Z,103332.81
2023-02-12T12:02:08.874Z,103322.81
2023-02-12T12:04:40.479Z,103277.88
2023-02-12T12:07:16.781Z,103332.97
2023-02-12T12:09:51.044Z,103328.03
2023-02-12T12:12:26.618Z,103302.13
2023-02-12T12:15:15.777Z,103310.00
2023-02-12T12:18:04.074Z,103280.47
2023-02-12T12:20:39.498Z,103316.19
2023-02-12T12:23:18.302Z,103255.22
2023-02-12T12:25:52.273Z,103301.44
2023-02-12T12:28:33.198Z,103309.00
2023-02-12T12:31:10.838Z,103325.09
2023-02-12T12:33:45.960Z,103294.69
2023-02-12T12:36:43.674Z,103296.44
2023-02-12T12:39:29.706Z,103298.59
2023-02-12T12:42:21.490Z,103301.84
2023-02-12T12:45:06.034Z,103309.84
2023-02-12T12:47:49.118Z,103309.34
2023-02-12T12:50:38.490Z,103284.75
2023-02-12T12:53:25.521Z,103300.47
2023-02-12T12:56:15.849Z,103279.19
2023-02-12T12:59:02.977Z,103283.78
2023-02-12T13:01:55.909Z,103281.03
2023-02-12T13:04:56.692Z,103269.75
2023-02-12T13:07:45.790Z,103246.72
2023-02-12T13:10:28.764Z,103220.31
2023-02-12T13:13:06.216Z,103271.13
2023-02-12T13:15:42.016Z,103270.03
2023-02-12T13:18:26.040Z,103265.16
2023-02-12T13:21:05.580Z,103239.06
2023-02-12T13:23:42.544Z,103277.19
2023-02-12T13:26:19.810Z,103268.28
2023-02-12T13:28:54.501Z,103206.28
2023-02-12T13:31:35.464Z,103277.09
2023-02-12T13:34:09.842Z,103246.00
2023-02-12T13:36:44.324Z,103277.88
2023-02-12T13:39:26.544Z,103234.31
2023-02-12T13:42:06.706Z,103260.22
2023-02-12T13:44:44.697Z,103228.25
2023-02-12T13:47:23.659Z,103259.75
2023-02-12T13:49:57.580Z,103270.56
2023-02-12T13:52:39.648Z,103218.69
2023-02-12T13:55:25.898Z,103241.28
2023-02-12T13:58:28.040Z,103274.38
2023-02-12T14:01:01.162Z,103260.25
2023-02-12T14:03:32.622Z,103276.25
2023-02-12T14:06:17.843Z,103273.38
2023-02-12T14:08:55.165Z,103226.69
2023-02-12T14:11:28.920Z,103216.31
2023-02-12T14:14:01.462Z,103243.84
2023-02-12T14:16:43.525Z,103273.69
2023-02-12T14:19:56.843Z,103180.63
2023-02-12T14:22:56.614Z,103282.91
2023-02-12T14:25:48.631Z,103259.47
2023-02-12T14:28:27.090Z,103274.47
2023-02-12T14:31:25.071Z,103282.50
2023-02-12T14:34:16.238Z,103263.97
2023-02-12T14:36:49.222Z,103252.59
2023-02-12T14:39:36.544Z,103277.41
2023-02-12T14:42:50.745Z,103275.13
2023-02-12T14:45:34.840Z,103235.50
2023-02-12T14:48:05.704Z,103260.25
2023-02-12T14:50:45.843Z,103271.03
2023-02-12T14:53:31.881Z,103274.66
2023-02-12T14:56:02.720Z,103218.09
2023-02-12T14:58:33.524Z,103240.22
2023-02-12T15:01:08.527Z,103261.81
2023-02-12T15:03:44.623Z,103242.56
2023-02-12T15:06:19.091Z,103237.41
2023-02-12T15:08:55.514Z,103262.31
2023-02-12T15:11:32.664Z,103263.28
2023-02-12T15:14:06.195Z,103274.44
2023-02-12T15:16:50.823Z,103276.22
2023-02-12T15:19:41.663Z,103274.16
2023-02-12T15:22:27.106Z,103272.03
2023-02-12T15:24:56.855Z,103259.47
2023-02-12T15:27:27.140Z,103261.63
2023-02-12T15:29:57.140Z,103273.97
2023-02-12T15:32:32.551Z,103263.59
2023-02-12T15:35:02.309Z,103261.69
2023-02-12T15:37:33.829Z,103229.56
2023-02-12T15:40:08.794Z,103238.47
2023-02-12T15:42:42.817Z,103247.22
2023-02-12T15:45:23.626Z,103266.31
2023-02-12T15:48:14.737Z,103240.63
2023-02-12T15:50:56.714Z,103265.13
2023-02-12T15:53:30.354Z,103232.38
2023-02-12T15:56:01.633Z,103253.59
2023-02-12T15:58:33.339Z,103274.47
2023-02-12T16:01:05.088Z,103273.59
2023-02-12T16:03:39.461Z,103275.34
2023-02-12T16:06:14.006Z,103260.06
2023-02-12T16:08:46.754Z,103266.03
2023-02-12T16:11:20.213Z,103257.69
2023-02-12T16:13:52.146Z,103270.06
2023-02-12T16:16:26.652Z,103265.25
2023-02-12T16:19:21.120Z,103236.13
2023-02-12T16:21:54.657Z,103273.38
2023-02-12T16:24:34.641Z,103276.34
2023-02-12T16:27:11.566Z,103275.56
2023-02-12T16:29:47.508Z,103276.34
2023-02-12T16:32:31.340Z,103262.97
2023-02-12T16:35:07.494Z,103257.50
2023-02-12T16:37:47.393Z,103277.22
2023-02-12T16:40:29.949Z,103210.81
2023-02-12T16:43:03.293Z,103271.63
2023-02-12T16:45:44.725Z,103293.59
2023-02-12T16:48:23.523Z,103284.28
2023-02-12T16:50:58.201Z,103290.88
2023-02-12T16:53:43.906Z,103266.50
2023-02-12T16:56:18.475Z,103283.47
2023-02-12T16:58:50.836Z,103269.66
2023-02-12T17:01:24.656Z,103262.38
2023-02-12T17:03:55.883Z,103296.44
2023-02-12T17:06:31.881Z,103279.09
2023-02-12T17:09:02.044Z,103280.25
2023-02-12T17:11:31.963Z,103289.75
2023-02-12T17:14:01.849Z,103140.56
2023-02-12T17:16:32.507Z,103193.16
2023-02-12T18:57:35.028Z,103273.03
2023-02-12T19:04:48.132Z,103004.41
2023-02-12T19:08:39.253Z,103263.97
2023-02-12T19:20:44.434Z,103308.66
2023-02-12T20:08:13.849Z,103168.94
2023-02-12T20:14:33.260Z,103022.59
2023-02-12T20:17:51.133Z,103188.81
2023-02-12T20:21:00.739Z,103271.41
2023-02-12T20:24:08.899Z,103194.56
2023-02-12T20:27:19.000Z,103227.44
2023-02-12T20:33:45.375Z,103101.19
2023-02-12T20:37:23.867Z,103212.94
2023-02-12T20:40:48.188Z,103175.84
2023-02-12T20:43:40.623Z,103173.00
2023-02-12T20:46:57.144Z,103331.16
2023-02-12T20:50:25.115Z,103162.09
2023-02-12T20:53:23.479Z,103344.28
2023-02-12T20:56:37.835Z,103327.16
2023-02-12T20:59:27.218Z,103225.47
2023-02-12T21:06:10.319Z,103001.66
2023-02-12T21:08:55.753Z,103166.91
2023-02-12T21:11:53.654Z,103166.25
2023-02-12T21:15:07.014Z,103289.03
2023-02-12T21:17:57.186Z,103339.69
2023-02-12T21:20:43.722Z,103162.50
2023-02-12T21:23:25.568Z,103177.97
2023-02-12T21:26:35.236Z,102995.50
2023-02-12T21:29:36.116Z,103170.25
2023-02-12T21:32:43.227Z,103168.03
2023-02-12T21:35:57.235Z,103176.00
2023-02-12T21:39:05.954Z,103164.94
2023-02-12T22:00:26.276Z,103305.81
2023-02-12T22:02:56.209Z,103267.28
2023-02-12T22:05:26.142Z,103253.47
2023-02-12T22:07:55.977Z,103178.63
2023-02-12T22:10:26.036Z,103126.63
2023-02-12T22:12:56.090Z,103296.41
2023-02-12T22:15:28.749Z,103237.31
2023-02-12T22:17:58.676Z,103220.13
2023-02-12T22:20:28.470Z,103236.81
2023-02-12T22:22:58.334Z,103113.22
2023-02-12T22:25:28.336Z,103224.78
2023-02-12T22:27:58.159Z,103233.06
2023-02-12T22:30:30.778Z,103133.50
2023-02-12T22:33:00.734Z,103208.19
2023-02-12T22:35:32.011Z,103129.81
2023-02-12T22:38:01.990Z,103086.00
2023-02-12T22:40:32.120Z,103301.97
2023-02-12T22:43:03.237Z,103244.34
2023-02-12T22:45:35.844Z,102980.34
2023-02-12T22:48:06.214Z,103238.78
2023-02-12T22:50:37.049Z,103170.41
2023-02-12T22:53:07.272Z,103023.66
2023-02-12T22:55:39.031Z,103152.34
2023-02-12T22:58:08.860Z,103287.63
2023-02-12T23:00:42.569Z,103192.09
2023-02-12T23:03:12.737Z,103182.59
2023-02-12T23:05:43.002Z,103214.19
2023-02-12T23:08:13.244Z,103234.31
2023-02-12T23:10:43.367Z,103245.88
2023-02-12T23:13:24.629Z,103196.16
2023-02-12T23:16:01.566Z,103207.75
2023-02-12T23:18:31.631Z,103203.34
2023-02-12T23:21:01.998Z,103195.47
2023-02-12T23:23:31.995Z,103197.84
2023-02-12T23:26:02.008Z,103063.22
2023-02-12T23:28:32.541Z,103218.38
2023-02-12T23:31:05.256Z,103128.41
2023-02-12T23:33:35.272Z,103201.84
2023-02-12T23:36:05.243Z,103103.34
2023-02-12T23:38:35.283Z,103180.16
2023-02-12T23:41:05.305Z,102962.38
2023-02-12T23:43:35.580Z,103216.84
2023-02-12T23:46:09.498Z,103290.94
2023-02-12T23:48:39.486Z,103290.63
2023-02-12T23:51:10.309Z,103295.63
2023-02-12T23:53:40.255Z,103291.56
2023-02-12T23:56:10.674Z,103096.56
2023-02-12T23:58:40.629Z,103153.41
